KUOX/UOX METAR and TAF weather

Enter ICAO airport designator
Station Type Date Time Source
KUOX METAR 2022/06/28 09:15 UTC NOAA

KUOX 280915Z AUTO 06005KT 10SM SCT055 18/13 A3014 RMK AO2 PWINO


Station Type Date Time Source
KUOX Decoded METAR 2022/06/28 09:15 UTC NOAA

Oxford, University-Oxford Airport, MS, United States (KUOX) 34-23-04N 089-32-08W
Jun 28, 2022 - 05:15 AM EDT / 2022.06.28 0915 UTC
Wind: from the ENE (060 degrees) at 6 MPH (5 KT):0
Visibility: 10 mile(s):0
Sky conditions: partly cloudy
Temperature: 64 F (18 C)
Dew Point: 55 F (13 C)
Relative Humidity: 72%
Pressure (altimeter): 30.14 in. Hg (1020 hPa)
ob: KUOX 280915Z AUTO 06005KT 10SM SCT055 18/13 A3014 RMK AO2 PWINO
cycle: 9

Station Type Date Time Source
KUOX TAF UTC NOAA

Error!

Example: see airport list